Private Wetterstation Wechselburg
Wetterdaten: Mittwoch, 23.12.2020
Datum Zeit Temp. +2m Bodentemp. Temp.+5cm Temp. Wind Windchill X Diff Temp. Feuchte +2m Feuchte +5cm Luftdruck Regen Wind Richtung Richtung Sonnenschein Taupunkt Windchill Windben
23.12.2020 00:00 10,3 C 9,2 C 9,5 C 10,2 C 10,1 C 0,0 C 87 % 91 % 1016,9 hPa 0,0 l/m 1,3 km/h (1 Bft) NO 45 0 min 8,2 C 10,1 C 2,3 km/h (1 Bft)
23.12.2020 00:05 10,3 C 9,2 C 9,4 C 10,2 C 9,9 C 0,0 C 87 % 91 % 1016,9 hPa 0,0 l/m 1,1 km/h (1 Bft) O-NO 67 0 min 8,2 C 9,9 C 0,0 km/h (0 Bft)
23.12.2020 00:10 10,1 C 9,2 C 9,4 C 10,0 C 9,8 C 0,0 C 87 % 91 % 1016,8 hPa 0,0 l/m 0,3 km/h (0 Bft) O-NO 67 0 min 8,0 C 9,8 C 0,0 km/h (0 Bft)
23.12.2020 00:15 10,1 C 9,2 C 9,3 C 10,0 C 9,7 C 0,0 C 87 % 91 % 1016,8 hPa 0,0 l/m 0,0 km/h (0 Bft) O-NO 67 0 min 8,0 C 9,7 C 0,0 km/h (0 Bft)
23.12.2020 00:20 10,0 C 9,2 C 9,2 C 9,9 C 9,6 C 0,0 C 87 % 91 % 1016,8 hPa 0,0 l/m 0,0 km/h (0 Bft) O-NO 67 0 min 7,9 C 9,6 C 0,0 km/h (0 Bft)
23.12.2020 00:25 9,8 C 9,2 C 9,1 C 9,7 C 9,5 C 0,0 C 87 % 91 % 1016,8 hPa 0,0 l/m 0,0 km/h (0 Bft) O-NO 67 0 min 7,7 C 9,5 C 0,0 km/h (0 Bft)
23.12.2020 00:30 9,8 C 9,2 C 8,9 C 9,7 C 9,5 C 0,0 C 87 % 91 % 1016,3 hPa 0,0 l/m 0,0 km/h (0 Bft) NO 45 0 min 7,7 C 9,5 C 0,0 km/h (0 Bft)
23.12.2020 00:35 9,6 C 9,2 C 8,9 C 9,5 C 9,4 C 0,0 C 87 % 91 % 1016,3 hPa 0,0 l/m 0,0 km/h (0 Bft) NO 45 0 min 7,5 C 9,4 C 0,0 km/h (0 Bft)
23.12.2020 00:40 9,6 C 9,2 C 8,7 C 9,5 C 9,4 C 0,0 C 87 % 91 % 1016,3 hPa 0,0 l/m 0,0 km/h (0 Bft) NO 45 0 min 7,5 C 9,4 C 0,0 km/h (0 Bft)
23.12.2020 00:45 9,5 C 9,2 C 8,8 C 9,5 C 9,4 C 0,0 C 87 % 92 % 1016,3 hPa 0,0 l/m 0,0 km/h (0 Bft) NO 45 0 min 7,4 C 9,4 C 0,0 km/h (0 Bft)
23.12.2020 00:50 9,4 C 9,2 C 8,7 C 9,4 C 9,4 C 0,0 C 88 % 92 % 1016,6 hPa 0,0 l/m 0,0 km/h (0 Bft) NO 45 0 min 7,5 C 9,4 C 0,0 km/h (0 Bft)
23.12.2020 00:55 9,4 C 9,2 C 8,7 C 9,4 C 9,4 C 0,0 C 88 % 92 % 1016,6 hPa 0,0 l/m 0,0 km/h (0 Bft) NO 45 0 min 7,5 C 9,4 C 0,0 km/h (0 Bft)
23.12.2020 01:00 9,3 C 9,1 C 8,7 C 9,4 C 9,4 C 0,1 C 87 % 92 % 1016,6 hPa 0,0 l/m 0,0 km/h (0 Bft) NO 45 0 min 7,2 C 9,4 C 0,0 km/h (0 Bft)
23.12.2020 01:05 9,2 C 9,1 C 8,6 C 9,3 C 9,3 C 0,1 C 87 % 92 % 1016,6 hPa 0,7 l/m 0,0 km/h (0 Bft) O-NO 67 0 min 7,2 C 9,3 C 0,0 km/h (0 Bft)
23.12.2020 01:10 9,2 C 9,1 C 8,5 C 9,3 C 9,3 C 0,1 C 87 % 92 % 1016,1 hPa 0,0 l/m 0,0 km/h (0 Bft) O-NO 67 0 min 7,2 C 9,3 C 0,0 km/h (0 Bft)
23.12.2020 01:15 9,1 C 9,1 C 8,5 C 9,2 C 9,2 C 0,1 C 87 % 92 % 1016,1 hPa 0,0 l/m 0,0 km/h (0 Bft) O-NO 67 0 min 7,1 C 9,2 C 0,0 km/h (0 Bft)
23.12.2020 01:20 9,0 C 9,1 C 8,4 C 9,2 C 9,2 C 0,2 C 87 % 92 % 1016,1 hPa 0,0 l/m 0,0 km/h (0 Bft) O-NO 67 0 min 7,0 C 9,2 C 0,0 km/h (0 Bft)
23.12.2020 01:25 9,0 C 9,1 C 8,4 C 9,2 C 9,2 C 0,2 C 87 % 92 % 1016,1 hPa 0,0 l/m 0,0 km/h (0 Bft) O-NO 67 0 min 7,0 C 9,2 C 0,0 km/h (0 Bft)
23.12.2020 01:30 9,0 C 9,1 C 8,4 C 9,2 C 9,2 C 0,2 C 88 % 92 % 1016,7 hPa 0,0 l/m 0,0 km/h (0 Bft) O-NO 67 0 min 7,1 C 9,2 C 0,0 km/h (0 Bft)
23.12.2020 01:35 8,9 C 9,1 C 8,4 C 9,2 C 9,2 C 0,3 C 88 % 92 % 1016,7 hPa 0,0 l/m 0,0 km/h (0 Bft) O-NO 67 0 min 7,0 C 9,2 C 0,0 km/h (0 Bft)
23.12.2020 01:40 8,8 C 9,1 C 8,4 C 9,2 C 9,2 C 0,4 C 88 % 92 % 1016,7 hPa 0,0 l/m 0,0 km/h (0 Bft) O-NO 67 0 min 6,9 C 9,2 C 0,0 km/h (0 Bft)
23.12.2020 01:45 8,8 C 9,1 C 8,4 C 9,2 C 9,2 C 0,4 C 88 % 92 % 1016,7 hPa 0,7 l/m 0,0 km/h (0 Bft) O-NO 67 0 min 6,9 C 9,2 C 0,0 km/h (0 Bft)
23.12.2020 01:50 8,7 C 9,1 C 8,3 C 9,2 C 9,2 C 0,5 C 88 % 92 % 1015,9 hPa 0,0 l/m 0,0 km/h (0 Bft) O-NO 67 0 min 6,8 C 9,2 C 0,0 km/h (0 Bft)
23.12.2020 01:55 8,7 C 9,1 C 8,3 C 9,2 C 9,2 C 0,5 C 88 % 92 % 1015,9 hPa 0,0 l/m 0,0 km/h (0 Bft) O-NO 67 0 min 6,8 C 9,2 C 0,0 km/h (0 Bft)
23.12.2020 02:00 8,6 C 9,1 C 8,2 C 9,2 C 9,2 C 0,6 C 88 % 92 % 1015,9 hPa 0,0 l/m 0,0 km/h (0 Bft) O-NO 67 0 min 6,7 C 9,2 C 0,0 km/h (0 Bft)
23.12.2020 02:05 8,7 C 9,1 C 8,2 C 9,2 C 9,2 C 0,5 C 88 % 92 % 1015,9 hPa 0,0 l/m 0,0 km/h (0 Bft) O-NO 67 0 min 6,8 C 9,2 C 0,0 km/h (0 Bft)
23.12.2020 02:10 8,5 C 9,1 C 8,1 C 9,1 C 9,1 C 0,6 C 88 % 92 % 1016,3 hPa 0,0 l/m 0,0 km/h (0 Bft) O-NO 67 0 min 6,6 C 9,1 C 0,0 km/h (0 Bft)
23.12.2020 02:15 8,5 C 9,1 C 8,1 C 9,1 C 9,1 C 0,6 C 88 % 92 % 1016,3 hPa 0,0 l/m 0,0 km/h (0 Bft) O-NO 67 0 min 6,6 C 9,1 C 0,0 km/h (0 Bft)
23.12.2020 02:20 8,4 C 9,1 C 8,0 C 9,0 C 9,0 C 0,6 C 88 % 92 % 1016,3 hPa 0,0 l/m 0,0 km/h (0 Bft) O-NO 67 0 min 6,5 C 9,0 C 0,0 km/h (0 Bft)
23.12.2020 02:25 8,4 C 9,1 C 8,0 C 9,0 C 9,0 C 0,6 C 88 % 92 % 1016,3 hPa 0,0 l/m 0,0 km/h (0 Bft) O-NO 67 0 min 6,5 C 9,0 C 0,0 km/h (0 Bft)
23.12.2020 02:30 8,3 C 9,1 C 8,0 C 9,0 C 9,0 C 0,7 C 88 % 92 % 1016,0 hPa 0,0 l/m 0,0 km/h (0 Bft) O-NO 67 0 min 6,4 C 9,0 C 0,0 km/h (0 Bft)
23.12.2020 02:35 8,3 C 9,1 C 8,0 C 9,0 C 9,0 C 0,7 C 88 % 92 % 1016,0 hPa 0,0 l/m 0,0 km/h (0 Bft) O-NO 67 0 min 6,4 C 9,0 C 0,0 km/h (0 Bft)
23.12.2020 02:40 8,3 C 9,1 C 8,0 C 9,0 C 9,0 C 0,7 C 88 % 92 % 1016,0 hPa 0,0 l/m 0,0 km/h (0 Bft) O-NO 67 0 min 6,4 C 9,0 C 0,0 km/h (0 Bft)
23.12.2020 02:45 8,3 C 9,1 C 8,1 C 9,0 C 9,0 C 0,7 C 88 % 92 % 1016,0 hPa 0,0 l/m 0,0 km/h (0 Bft) NO 45 0 min 6,4 C 9,0 C 0,0 km/h (0 Bft)
23.12.2020 02:50 8,3 C 9,1 C 8,1 C 9,0 C 9,0 C 0,7 C 88 % 92 % 1016,6 hPa 0,0 l/m 0,0 km/h (0 Bft) NO 45 0 min 6,4 C 9,0 C 0,0 km/h (0 Bft)
23.12.2020 02:55 8,3 C 9,1 C 8,1 C 9,0 C 9,0 C 0,7 C 88 % 92 % 1016,6 hPa 0,7 l/m 0,0 km/h (0 Bft) O-NO 67 0 min 6,4 C 9,0 C 0,0 km/h (0 Bft)
23.12.2020 03:00 8,1 C 9,1 C 8,1 C 9,0 C 9,0 C 0,9 C 88 % 92 % 1016,6 hPa 0,0 l/m 0,0 km/h (0 Bft) O-NO 67 0 min 6,2 C 9,0 C 0,0 km/h (0 Bft)
23.12.2020 03:05 8,1 C 9,0 C 7,9 C 8,9 C 8,9 C 0,8 C 88 % 92 % 1016,6 hPa 0,0 l/m 0,0 km/h (0 Bft) O-NO 67 0 min 6,2 C 8,9 C 0,0 km/h (0 Bft)
23.12.2020 03:10 8,0 C 9,0 C 7,9 C 8,9 C 8,9 C 0,9 C 88 % 92 % 1015,5 hPa 0,0 l/m 0,0 km/h (0 Bft) O-NO 67 0 min 6,1 C 8,9 C 0,0 km/h (0 Bft)
23.12.2020 03:15 8,0 C 9,0 C 7,9 C 8,8 C 8,8 C 0,8 C 88 % 92 % 1015,5 hPa 0,0 l/m 0,0 km/h (0 Bft) O-NO 67 0 min 6,1 C 8,8 C 0,0 km/h (0 Bft)
23.12.2020 03:20 8,1 C 9,0 C 7,9 C 8,8 C 8,8 C 0,7 C 88 % 92 % 1015,5 hPa 0,0 l/m 0,0 km/h (0 Bft) O-NO 67 0 min 6,2 C 8,8 C 1,8 km/h (1 Bft)
23.12.2020 03:25 8,0 C 9,0 C 7,9 C 8,9 C 8,9 C 0,9 C 88 % 92 % 1015,5 hPa 0,0 l/m 0,0 km/h (0 Bft) NO 45 0 min 6,1 C 8,9 C 0,0 km/h (0 Bft)
23.12.2020 03:30 8,0 C 9,0 C 8,0 C 8,9 C 8,9 C 0,9 C 88 % 92 % 1016,0 hPa 0,0 l/m 0,0 km/h (0 Bft) NO 45 0 min 6,1 C 8,9 C 0,0 km/h (0 Bft)
23.12.2020 03:35 8,0 C 9,0 C 7,9 C 8,9 C 8,9 C 0,9 C 88 % 92 % 1016,0 hPa 0,0 l/m 0,0 km/h (0 Bft) NO 45 0 min 6,1 C 8,9 C 0,0 km/h (0 Bft)
23.12.2020 03:40 7,9 C 9,0 C 7,9 C 8,9 C 8,9 C 1,0 C 88 % 92 % 1016,0 hPa 0,0 l/m 0,0 km/h (0 Bft) NO 45 0 min 6,0 C 8,9 C 0,0 km/h (0 Bft)
23.12.2020 03:45 7,9 C 9,0 C 7,9 C 9,0 C 9,0 C 1,1 C 88 % 92 % 1016,0 hPa 0,0 l/m 0,0 km/h (0 Bft) O-NO 67 0 min 6,0 C 9,0 C 0,0 km/h (0 Bft)
23.12.2020 03:50 7,9 C 9,1 C 8,0 C 9,1 C 9,1 C 1,2 C 88 % 92 % 1016,1 hPa 0,7 l/m 0,0 km/h (0 Bft) N-NO 22 0 min 6,0 C 9,1 C 0,0 km/h (0 Bft)
23.12.2020 03:55 7,9 C 9,1 C 8,3 C 9,2 C 9,2 C 1,3 C 88 % 92 % 1016,1 hPa 0,0 l/m 0,0 km/h (0 Bft) O-NO 67 0 min 6,0 C 9,2 C 0,0 km/h (0 Bft)
23.12.2020 04:00 8,0 C 9,1 C 8,4 C 9,3 C 9,3 C 1,3 C 88 % 91 % 1016,1 hPa 0,0 l/m 0,2 km/h (0 Bft) O-NO 67 0 min 6,1 C 9,3 C 1,8 km/h (1 Bft)
23.12.2020 04:05 8,0 C 9,1 C 8,6 C 9,4 C 9,4 C 1,4 C 88 % 92 % 1016,1 hPa 0,7 l/m 0,3 km/h (0 Bft) S-SO 157 0 min 6,1 C 9,4 C 2,9 km/h (1 Bft)
23.12.2020 04:10 8,1 C 9,1 C 8,6 C 9,6 C 9,6 C 1,5 C 88 % 92 % 1015,7 hPa 0,0 l/m 0,5 km/h (0 Bft) S 180 0 min 6,2 C 9,6 C 0,0 km/h (0 Bft)
23.12.2020 04:15 8,3 C 9,1 C 8,7 C 9,7 C 9,7 C 1,4 C 88 % 92 % 1015,7 hPa 0,0 l/m 1,0 km/h (0 Bft) O-NO 67 0 min 6,4 C 9,7 C 1,6 km/h (1 Bft)
23.12.2020 04:20 8,3 C 9,1 C 8,7 C 9,7 C 9,7 C 1,4 C 88 % 92 % 1015,7 hPa 0,0 l/m 0,5 km/h (0 Bft) O-SO 112 0 min 6,4 C 9,7 C 0,0 km/h (0 Bft)
23.12.2020 04:25 8,3 C 9,1 C 8,8 C 9,7 C 9,7 C 1,4 C 88 % 92 % 1015,7 hPa 0,0 l/m 0,5 km/h (0 Bft) O-NO 67 0 min 6,4 C 9,7 C 2,3 km/h (1 Bft)
23.12.2020 04:30 8,3 C 9,1 C 8,9 C 9,8 C 9,8 C 1,5 C 88 % 92 % 1015,7 hPa 0,0 l/m 0,6 km/h (0 Bft) O-NO 67 0 min 6,4 C 9,8 C 0,0 km/h (0 Bft)
23.12.2020 04:35 8,4 C 9,1 C 8,9 C 9,8 C 9,8 C 1,4 C 88 % 92 % 1015,7 hPa 0,0 l/m 1,0 km/h (0 Bft) S-SW 202 0 min 6,5 C 9,8 C 4,2 km/h (1 Bft)
23.12.2020 04:40 8,5 C 9,1 C 8,9 C 9,9 C 9,9 C 1,4 C 88 % 92 % 1015,7 hPa 0,0 l/m 1,0 km/h (0 Bft) O 90 0 min 6,6 C 9,9 C 1,6 km/h (1 Bft)
23.12.2020 04:45 8,4 C 9,1 C 9,0 C 9,9 C 9,9 C 1,5 C 88 % 92 % 1015,7 hPa 0,0 l/m 1,3 km/h (1 Bft) S 180 0 min 6,5 C 9,9 C 5,1 km/h (1 Bft)
23.12.2020 04:50 8,4 C 9,1 C 9,0 C 10,0 C 10,0 C 1,6 C 88 % 92 % 1015,5 hPa 0,0 l/m 1,4 km/h (1 Bft) S 180 0 min 6,5 C 10,0 C 4,3 km/h (1 Bft)
23.12.2020 04:55 8,4 C 9,1 C 8,9 C 9,9 C 9,9 C 1,5 C 88 % 92 % 1015,5 hPa 0,0 l/m 1,1 km/h (1 Bft) W-SW 247 0 min 6,5 C 9,9 C 1,8 km/h (1 Bft)
23.12.2020 05:00 8,4 C 9,1 C 8,9 C 9,9 C 9,9 C 1,5 C 88 % 92 % 1015,5 hPa 0,0 l/m 1,0 km/h (0 Bft) NW 315 0 min 6,5 C 9,9 C 0,0 km/h (0 Bft)
23.12.2020 05:05 8,4 C 9,1 C 8,9 C 9,8 C 9,8 C 1,4 C 88 % 92 % 1015,5 hPa 0,0 l/m 0,8 km/h (0 Bft) NW 315 0 min 6,5 C 9,8 C 0,0 km/h (0 Bft)
23.12.2020 05:10 8,4 C 9,1 C 8,8 C 9,7 C 9,7 C 1,3 C 88 % 92 % 1015,4 hPa 0,0 l/m 0,3 km/h (0 Bft) NW 315 0 min 6,5 C 9,7 C 0,0 km/h (0 Bft)
23.12.2020 05:15 8,4 C 9,1 C 8,7 C 9,7 C 9,7 C 1,3 C 88 % 92 % 1015,4 hPa 0,0 l/m 0,0 km/h (0 Bft) NW 315 0 min 6,5 C 9,7 C 0,0 km/h (0 Bft)
23.12.2020 05:20 8,3 C 9,1 C 8,7 C 9,7 C 9,7 C 1,4 C 88 % 92 % 1015,4 hPa 0,0 l/m 0,0 km/h (0 Bft) NW 315 0 min 6,4 C 9,7 C 0,0 km/h (0 Bft)
23.12.2020 05:25 8,3 C 9,1 C 8,6 C 9,7 C 9,7 C 1,4 C 88 % 92 % 1015,4 hPa 0,0 l/m 0,0 km/h (0 Bft) SW 225 0 min 6,4 C 9,7 C 0,0 km/h (0 Bft)
23.12.2020 05:30 8,2 C 9,1 C 8,5 C 9,5 C 9,5 C 1,3 C 88 % 92 % 1015,4 hPa 0,0 l/m 0,0 km/h (0 Bft) SW 225 0 min 6,3 C 9,5 C 0,0 km/h (0 Bft)
23.12.2020 05:35 8,3 C 9,1 C 8,5 C 9,5 C 9,5 C 1,2 C 88 % 92 % 1015,4 hPa 0,0 l/m 0,0 km/h (0 Bft) W-SW 247 0 min 6,4 C 9,5 C 0,0 km/h (0 Bft)
23.12.2020 05:40 8,3 C 9,1 C 8,4 C 9,5 C 9,5 C 1,2 C 88 % 92 % 1015,4 hPa 0,0 l/m 0,0 km/h (0 Bft) S-SW 202 0 min 6,4 C 9,5 C 0,0 km/h (0 Bft)
23.12.2020 05:45 8,2 C 9,1 C 8,4 C 9,4 C 9,4 C 1,2 C 88 % 92 % 1015,4 hPa 0,0 l/m 0,3 km/h (0 Bft) W-SW 247 0 min 6,3 C 9,4 C 0,0 km/h (0 Bft)
23.12.2020 05:50 8,1 C 9,1 C 8,4 C 9,4 C 9,4 C 1,3 C 88 % 92 % 1015,0 hPa 0,0 l/m 0,3 km/h (0 Bft) W-SW 247 0 min 6,2 C 9,4 C 0,0 km/h (0 Bft)
23.12.2020 05:55 8,1 C 9,1 C 8,3 C 9,3 C 9,3 C 1,2 C 88 % 92 % 1015,0 hPa 0,0 l/m 0,2 km/h (0 Bft) S-SW 202 0 min 6,2 C 9,3 C 0,0 km/h (0 Bft)
23.12.2020 06:00 8,1 C 9,1 C 8,3 C 9,4 C 9,4 C 1,3 C 88 % 91 % 1015,0 hPa 0,0 l/m 0,2 km/h (0 Bft) S-SW 202 0 min 6,2 C 9,4 C 0,0 km/h (0 Bft)
23.12.2020 06:05 8,0 C 9,1 C 8,2 C 9,3 C 9,3 C 1,3 C 88 % 92 % 1015,0 hPa 0,0 l/m 0,2 km/h (0 Bft) S 180 0 min 6,1 C 9,3 C 0,0 km/h (0 Bft)
23.12.2020 06:10 8,1 C 9,1 C 8,1 C 9,2 C 9,2 C 1,1 C 88 % 92 % 1015,4 hPa 0,0 l/m 0,0 km/h (0 Bft) SW 225 0 min 6,2 C 9,2 C 0,0 km/h (0 Bft)
23.12.2020 06:15 7,9 C 9,1 C 8,0 C 9,2 C 9,2 C 1,3 C 88 % 92 % 1015,4 hPa 0,0 l/m 0,0 km/h (0 Bft) SW 225 0 min 6,0 C 9,2 C 0,0 km/h (0 Bft)
23.12.2020 06:20 7,9 C 9,1 C 8,0 C 9,2 C 9,2 C 1,3 C 88 % 92 % 1015,4 hPa 0,0 l/m 0,0 km/h (0 Bft) W-SW 247 0 min 6,0 C 9,2 C 0,0 km/h (0 Bft)
23.12.2020 06:25 7,8 C 9,1 C 8,0 C 9,1 C 9,1 C 1,3 C 88 % 92 % 1015,4 hPa 0,0 l/m 0,0 km/h (0 Bft) NW 315 0 min 5,9 C 9,1 C 0,0 km/h (0 Bft)
23.12.2020 06:30 7,8 C 9,1 C 8,0 C 9,1 C 9,1 C 1,3 C 88 % 92 % 1015,4 hPa 0,0 l/m 0,0 km/h (0 Bft) S-SO 157 0 min 5,9 C 9,1 C 0,0 km/h (0 Bft)
23.12.2020 06:35 7,8 C 9,1 C 8,0 C 9,2 C 9,2 C 1,4 C 88 % 92 % 1015,4 hPa 0,0 l/m 0,0 km/h (0 Bft) S-SW 202 0 min 5,9 C 9,2 C 1,6 km/h (1 Bft)
23.12.2020 06:40 7,9 C 9,1 C 8,0 C 9,2 C 9,2 C 1,3 C 88 % 92 % 1015,4 hPa 0,0 l/m 0,0 km/h (0 Bft) S-SW 202 0 min 6,0 C 9,2 C 0,0 km/h (0 Bft)
23.12.2020 06:45 7,9 C 9,1 C 7,9 C 9,2 C 9,2 C 1,3 C 88 % 92 % 1015,4 hPa 0,0 l/m 0,0 km/h (0 Bft) S-SW 202 0 min 6,0 C 9,2 C 0,0 km/h (0 Bft)
23.12.2020 06:50 7,8 C 9,1 C 8,0 C 9,2 C 9,2 C 1,4 C 88 % 92 % 1015,5 hPa 0,0 l/m 0,0 km/h (0 Bft) S-SO 157 0 min 5,9 C 9,2 C 0,0 km/h (0 Bft)
23.12.2020 06:55 7,7 C 9,1 C 7,9 C 9,2 C 9,2 C 1,5 C 88 % 92 % 1015,5 hPa 0,0 l/m 0,0 km/h (0 Bft) S-SO 157 0 min 5,8 C 9,2 C 0,0 km/h (0 Bft)
23.12.2020 07:00 7,7 C 9,1 C 7,8 C 9,2 C 9,2 C 1,5 C 88 % 92 % 1015,5 hPa 0,0 l/m 0,0 km/h (0 Bft) S-SO 157 0 min 5,8 C 9,2 C 0,0 km/h (0 Bft)
23.12.2020 07:05 7,6 C 9,1 C 7,9 C 9,3 C 9,3 C 1,7 C 88 % 92 % 1015,5 hPa 0,0 l/m 0,0 km/h (0 Bft) S-SO 157 0 min 5,7 C 9,3 C 0,0 km/h (0 Bft)
23.12.2020 07:10 7,6 C 9,1 C 8,0 C 9,3 C 9,3 C 1,7 C 88 % 92 % 1015,1 hPa 0,0 l/m 0,0 km/h (0 Bft) S-SO 157 0 min 5,7 C 9,3 C 0,0 km/h (0 Bft)
23.12.2020 07:15 7,6 C 9,1 C 8,0 C 9,3 C 9,3 C 1,7 C 88 % 91 % 1015,1 hPa 0,0 l/m 0,0 km/h (0 Bft) O 90 0 min 5,7 C 9,3 C 0,0 km/h (0 Bft)
23.12.2020 07:20 7,6 C 9,1 C 8,0 C 9,2 C 9,2 C 1,6 C 88 % 91 % 1015,1 hPa 0,0 l/m 0,0 km/h (0 Bft) O 90 0 min 5,7 C 9,2 C 0,0 km/h (0 Bft)
23.12.2020 07:25 7,7 C 9,1 C 8,1 C 9,2 C 9,2 C 1,5 C 89 % 91 % 1015,1 hPa 0,0 l/m 0,0 km/h (0 Bft) S 180 0 min 6,0 C 9,2 C 0,0 km/h (0 Bft)
23.12.2020 07:30 7,7 C 9,1 C 8,1 C 9,2 C 9,2 C 1,5 C 88 % 91 % 1015,6 hPa 0,0 l/m 0,0 km/h (0 Bft) S 180 0 min 5,8 C 9,2 C 0,0 km/h (0 Bft)
23.12.2020 07:35 7,6 C 9,1 C 8,1 C 9,2 C 9,2 C 1,6 C 88 % 91 % 1015,6 hPa 0,0 l/m 0,0 km/h (0 Bft) S 180 0 min 5,7 C 9,2 C 0,0 km/h (0 Bft)
23.12.2020 07:40 7,7 C 9,1 C 8,1 C 9,2 C 9,2 C 1,5 C 89 % 91 % 1015,6 hPa 0,0 l/m 0,0 km/h (0 Bft) S 180 0 min 6,0 C 9,2 C 0,0 km/h (0 Bft)
23.12.2020 07:45 7,7 C 9,1 C 8,1 C 9,2 C 9,2 C 1,5 C 89 % 91 % 1015,6 hPa 0,0 l/m 0,0 km/h (0 Bft) S 180 0 min 6,0 C 9,2 C 0,0 km/h (0 Bft)
23.12.2020 07:50 7,6 C 9,1 C 8,1 C 9,1 C 9,1 C 1,5 C 88 % 91 % 1015,5 hPa 0,0 l/m 0,0 km/h (0 Bft) S 180 0 min 5,7 C 9,1 C 0,0 km/h (0 Bft)
23.12.2020 07:55 7,6 C 9,1 C 8,0 C 9,1 C 9,1 C 1,5 C 88 % 92 % 1015,5 hPa 0,0 l/m 0,0 km/h (0 Bft) O-SO 112 0 min 5,7 C 9,1 C 0,0 km/h (0 Bft)
23.12.2020 08:00 7,5 C 9,1 C 8,0 C 9,0 C 9,0 C 1,5 C 88 % 92 % 1015,5 hPa 0,0 l/m 0,0 km/h (0 Bft) O-SO 112 0 min 5,6 C 9,0 C 0,0 km/h (0 Bft)
23.12.2020 08:05 7,5 C 9,1 C 8,0 C 9,0 C 9,0 C 1,5 C 88 % 92 % 1015,5 hPa 0,0 l/m 0,0 km/h (0 Bft) O-SO 112 0 min 5,6 C 9,0 C 0,0 km/h (0 Bft)
23.12.2020 08:10 7,5 C 9,1 C 8,0 C 9,0 C 9,0 C 1,5 C 88 % 91 % 1015,3 hPa 0,0 l/m 0,0 km/h (0 Bft) S-SO 157 0 min 5,6 C 9,0 C 0,0 km/h (0 Bft)
23.12.2020 08:15 7,5 C 9,1 C 8,1 C 9,0 C 9,0 C 1,5 C 88 % 91 % 1015,3 hPa 0,0 l/m 0,0 km/h (0 Bft) O-SO 112 0 min 5,6 C 9,0 C 0,0 km/h (0 Bft)
23.12.2020 08:20 7,5 C 9,1 C 8,1 C 9,1 C 9,1 C 1,6 C 88 % 91 % 1015,3 hPa 0,0 l/m 0,0 km/h (0 Bft) O 90 0 min 5,6 C 9,1 C 0,0 km/h (0 Bft)
23.12.2020 08:25 7,5 C 9,1 C 8,1 C 9,2 C 9,2 C 1,7 C 88 % 91 % 1015,3 hPa 0,0 l/m 0,0 km/h (0 Bft) O-NO 67 5 min 5,6 C 9,2 C 0,0 km/h (0 Bft)
23.12.2020 08:30 7,5 C 9,1 C 8,2 C 9,2 C 9,2 C 1,7 C 88 % 91 % 1016,2 hPa 0,0 l/m 0,0 km/h (0 Bft) O-NO 67 5 min 5,6 C 9,2 C 0,0 km/h (0 Bft)
23.12.2020 08:35 7,5 C 9,1 C 8,3 C 9,2 C 9,2 C 1,7 C 88 % 91 % 1016,2 hPa 0,0 l/m 0,0 km/h (0 Bft) O-NO 67 5 min 5,6 C 9,2 C 0,0 km/h (0 Bft)
23.12.2020 08:40 7,5 C 9,1 C 8,3 C 9,2 C 9,2 C 1,7 C 88 % 91 % 1016,2 hPa 0,0 l/m 0,0 km/h (0 Bft) O 90 5 min 5,6 C 9,2 C 0,0 km/h (0 Bft)
23.12.2020 08:45 7,5 C 9,1 C 8,3 C 9,2 C 9,2 C 1,7 C 88 % 91 % 1016,2 hPa 0,0 l/m 0,8 km/h (0 Bft) S 180 5 min 5,6 C 9,2 C 2,3 km/h (1 Bft)
23.12.2020 08:50 7,6 C 9,1 C 8,4 C 9,2 C 9,2 C 1,6 C 88 % 91 % 1015,9 hPa 0,0 l/m 1,1 km/h (1 Bft) SO 135 5 min 5,7 C 9,2 C 5,1 km/h (1 Bft)
23.12.2020 08:55 7,6 C 9,1 C 8,4 C 9,2 C 9,2 C 1,6 C 88 % 91 % 1015,9 hPa 0,0 l/m 1,1 km/h (1 Bft) S 180 5 min 5,7 C 9,2 C 0,0 km/h (0 Bft)
23.12.2020 09:00 7,6 C 9,1 C 8,4 C 9,2 C 9,2 C 1,6 C 88 % 91 % 1015,9 hPa 0,0 l/m 1,4 km/h (1 Bft) S-SO 157 5 min 5,7 C 9,2 C 3,2 km/h (1 Bft)
23.12.2020 09:05 7,6 C 9,1 C 8,5 C 9,3 C 9,3 C 1,7 C 88 % 92 % 1015,9 hPa 0,0 l/m 1,8 km/h (1 Bft) S-SO 157 5 min 5,7 C 9,3 C 3,9 km/h (1 Bft)
23.12.2020 09:10 7,7 C 9,1 C 8,5 C 9,3 C 9,3 C 1,6 C 89 % 92 % 1015,9 hPa 0,0 l/m 2,1 km/h (1 Bft) SO 135 5 min 6,0 C 9,3 C 2,9 km/h (1 Bft)
23.12.2020 09:15 7,6 C 9,1 C 8,5 C 9,3 C 9,3 C 1,7 C 88 % 92 % 1015,9 hPa 0,0 l/m 1,8 km/h (1 Bft) S 180 0 min 5,7 C 9,3 C 1,6 km/h (1 Bft)
23.12.2020 09:20 7,6 C 9,1 C 8,6 C 9,3 C 9,3 C 1,7 C 88 % 92 % 1015,9 hPa 0,0 l/m 0,8 km/h (0 Bft) S 180 0 min 5,7 C 9,3 C 0,0 km/h (0 Bft)
23.12.2020 09:25 7,6 C 9,1 C 8,6 C 9,4 C 9,4 C 1,8 C 88 % 92 % 1015,9 hPa 0,0 l/m 0,6 km/h (0 Bft) SO 135 0 min 5,7 C 9,4 C 2,6 km/h (1 Bft)
23.12.2020 09:30 7,7 C 9,1 C 8,7 C 9,4 C 9,4 C 1,7 C 89 % 92 % 1015,6 hPa 0,0 l/m 1,1 km/h (1 Bft) SO 135 0 min 6,0 C 9,4 C 3,2 km/h (1 Bft)
23.12.2020 09:35 7,7 C 9,1 C 8,7 C 9,5 C 9,5 C 1,8 C 89 % 92 % 1015,6 hPa 0,0 l/m 1,9 km/h (1 Bft) SO 135 0 min 6,0 C 9,5 C 3,7 km/h (1 Bft)
23.12.2020 09:40 7,7 C 9,1 C 8,7 C 9,5 C 9,5 C 1,8 C 89 % 92 % 1015,6 hPa 0,0 l/m 2,1 km/h (1 Bft) SW 225 0 min 6,0 C 9,5 C 2,1 km/h (1 Bft)
23.12.2020 09:45 7,8 C 9,1 C 8,7 C 9,5 C 9,5 C 1,7 C 89 % 92 % 1015,6 hPa 0,0 l/m 1,4 km/h (1 Bft) SO 135 0 min 6,1 C 9,5 C 0,0 km/h (0 Bft)
23.12.2020 09:50 7,8 C 9,1 C 8,8 C 9,6 C 9,6 C 1,8 C 89 % 92 % 1015,7 hPa 0,0 l/m 0,8 km/h (0 Bft) SO 135 0 min 6,1 C 9,6 C 0,0 km/h (0 Bft)
23.12.2020 09:55 7,9 C 9,1 C 8,9 C 9,7 C 9,7 C 1,8 C 89 % 92 % 1015,7 hPa 0,0 l/m 0,2 km/h (0 Bft) SO 135 0 min 6,2 C 9,7 C 0,0 km/h (0 Bft)
23.12.2020 10:00 7,9 C 9,1 C 8,9 C 9,7 C 9,7 C 1,8 C 89 % 92 % 1015,7 hPa 0,0 l/m 0,0 km/h (0 Bft) S-SW 202 0 min 6,2 C 9,7 C 0,0 km/h (0 Bft)
23.12.2020 10:05 7,9 C 9,1 C 8,9 C 9,7 C 9,7 C 1,8 C 89 % 92 % 1015,7 hPa 0,0 l/m 0,0 km/h (0 Bft) SO 135 0 min 6,2 C 9,7 C 0,0 km/h (0 Bft)
23.12.2020 10:10 7,9 C 9,1 C 8,9 C 9,8 C 9,8 C 1,9 C 89 % 92 % 1015,7 hPa 0,0 l/m 0,0 km/h (0 Bft) S-SO 157 0 min 6,2 C 9,8 C 0,0 km/h (0 Bft)
23.12.2020 10:15 7,9 C 9,1 C 9,0 C 9,9 C 9,9 C 2,0 C 89 % 92 % 1015,7 hPa 0,0 l/m 0,0 km/h (0 Bft) S 180 0 min 6,2 C 9,9 C 0,0 km/h (0 Bft)
23.12.2020 10:20 8,0 C 9,1 C 9,0 C 9,9 C 9,9 C 1,9 C 89 % 92 % 1015,7 hPa 0,0 l/m 0,0 km/h (0 Bft) S-SO 157 0 min 6,3 C 9,9 C 0,0 km/h (0 Bft)
23.12.2020 10:25 8,0 C 9,1 C 9,0 C 10,0 C 10,0 C 2,0 C 89 % 92 % 1015,7 hPa 0,0 l/m 0,0 km/h (0 Bft) SW 225 0 min 6,3 C 10,0 C 0,0 km/h (0 Bft)
23.12.2020 10:30 8,0 C 9,1 C 9,0 C 10,0 C 10,0 C 2,0 C 89 % 92 % 1015,6 hPa 0,0 l/m 0,0 km/h (0 Bft) SW 225 0 min 6,3 C 10,0 C 0,0 km/h (0 Bft)
23.12.2020 10:35 8,0 C 9,1 C 9,0 C 10,0 C 10,0 C 2,0 C 89 % 92 % 1015,6 hPa 0,0 l/m 0,0 km/h (0 Bft) SW 225 0 min 6,3 C 10,0 C 0,0 km/h (0 Bft)
23.12.2020 10:40 8,1 C 9,1 C 9,1 C 10,0 C 10,0 C 1,9 C 89 % 92 % 1015,6 hPa 0,0 l/m 0,0 km/h (0 Bft) SW 225 0 min 6,4 C 10,0 C 0,0 km/h (0 Bft)
23.12.2020 10:45 8,1 C 9,1 C 9,1 C 10,1 C 10,1 C 2,0 C 89 % 92 % 1015,6 hPa 0,0 l/m 0,0 km/h (0 Bft) O-SO 112 0 min 6,4 C 10,1 C 0,0 km/h (0 Bft)
23.12.2020 10:50 8,1 C 9,1 C 9,2 C 10,2 C 10,2 C 2,1 C 89 % 91 % 1015,0 hPa 0,0 l/m 0,0 km/h (0 Bft) SW 225 0 min 6,4 C 10,2 C 0,0 km/h (0 Bft)
23.12.2020 10:55 8,2 C 9,2 C 9,3 C 10,3 C 10,3 C 2,1 C 89 % 91 % 1015,0 hPa 0,0 l/m 0,0 km/h (0 Bft) W-SW 247 0 min 6,5 C 10,3 C 0,0 km/h (0 Bft)
23.12.2020 11:00 8,3 C 9,2 C 9,5 C 10,5 C 10,5 C 2,2 C 89 % 91 % 1015,0 hPa 0,0 l/m 0,0 km/h (0 Bft) W-SW 247 0 min 6,6 C 10,5 C 0,0 km/h (0 Bft)
23.12.2020 11:05 8,2 C 9,2 C 9,5 C 10,5 C 10,5 C 2,3 C 89 % 91 % 1015,0 hPa 0,0 l/m 0,0 km/h (0 Bft) W-SW 247 0 min 6,5 C 10,5 C 0,0 km/h (0 Bft)
23.12.2020 11:10 8,3 C 9,2 C 9,6 C 10,7 C 10,7 C 2,4 C 89 % 91 % 1015,3 hPa 0,0 l/m 0,0 km/h (0 Bft) W-SW 247 0 min 6,6 C 10,7 C 0,0 km/h (0 Bft)
23.12.2020 11:15 8,3 C 9,2 C 9,7 C 10,7 C 10,7 C 2,4 C 89 % 91 % 1015,3 hPa 0,0 l/m 0,0 km/h (0 Bft) W-SW 247 0 min 6,6 C 10,7 C 0,0 km/h (0 Bft)
23.12.2020 11:20 8,3 C 9,2 C 9,7 C 10,9 C 10,9 C 2,6 C 89 % 91 % 1015,3 hPa 0,0 l/m 0,0 km/h (0 Bft) W-SW 247 0 min 6,6 C 10,9 C 0,0 km/h (0 Bft)
23.12.2020 11:25 8,3 C 9,2 C 9,9 C 11,2 C 11,2 C 2,9 C 89 % 91 % 1015,3 hPa 0,0 l/m 0,0 km/h (0 Bft) W-SW 247 0 min 6,6 C 11,2 C 0,0 km/h (0 Bft)
23.12.2020 11:30 8,3 C 9,2 C 10,0 C 11,5 C 11,5 C 3,2 C 89 % 91 % 1014,8 hPa 0,0 l/m 0,0 km/h (0 Bft) W-SW 247 0 min 6,6 C 11,5 C 0,0 km/h (0 Bft)
23.12.2020 11:35 8,3 C 9,2 C 10,1 C 11,5 C 11,5 C 3,2 C 89 % 91 % 1014,8 hPa 0,0 l/m 0,0 km/h (0 Bft) W-SW 247 0 min 6,6 C 11,5 C 0,0 km/h (0 Bft)
23.12.2020 11:40 8,3 C 9,2 C 10,2 C 11,5 C 11,5 C 3,2 C 89 % 91 % 1014,8 hPa 0,0 l/m 0,0 km/h (0 Bft) W-SW 247 0 min 6,6 C 11,5 C 0,0 km/h (0 Bft)
23.12.2020 11:45 8,3 C 9,2 C 10,2 C 11,5 C 11,5 C 3,2 C 89 % 91 % 1014,8 hPa 0,0 l/m 0,0 km/h (0 Bft) W-SW 247 0 min 6,6 C 11,5 C 0,0 km/h (0 Bft)
23.12.2020 11:50 8,3 C 9,2 C 10,2 C 11,5 C 11,5 C 3,2 C 89 % 91 % 1014,4 hPa 0,0 l/m 0,0 km/h (0 Bft) W-SW 247 0 min 6,6 C 11,5 C 0,0 km/h (0 Bft)
23.12.2020 11:55 8,3 C 9,2 C 10,3 C 11,6 C 11,6 C 3,3 C 89 % 91 % 1014,4 hPa 0,0 l/m 0,0 km/h (0 Bft) W-SW 247 5 min 6,6 C 11,6 C 0,0 km/h (0 Bft)
23.12.2020 12:00 8,3 C 9,2 C 10,4 C 11,7 C 11,7 C 3,4 C 89 % 91 % 1014,4 hPa 0,0 l/m 0,0 km/h (0 Bft) W-SW 247 5 min 6,6 C 11,7 C 0,0 km/h (0 Bft)
23.12.2020 12:05 8,3 C 9,2 C 10,5 C 11,7 C 11,7 C 3,4 C 89 % 91 % 1014,4 hPa 0,0 l/m 0,0 km/h (0 Bft) W-SW 247 5 min 6,6 C 11,7 C 0,0 km/h (0 Bft)
23.12.2020 12:10 8,3 C 9,2 C 10,4 C 11,8 C 11,8 C 3,5 C 89 % 91 % 1014,2 hPa 0,0 l/m 0,0 km/h (0 Bft) W-SW 247 5 min 6,6 C 11,8 C 0,0 km/h (0 Bft)
23.12.2020 12:15 8,3 C 9,2 C 10,5 C 11,8 C 11,8 C 3,5 C 89 % 91 % 1014,2 hPa 0,0 l/m 0,0 km/h (0 Bft) W-SW 247 5 min 6,6 C 11,8 C 0,0 km/h (0 Bft)
23.12.2020 12:20 8,3 C 9,2 C 10,5 C 11,9 C 11,9 C 3,6 C 89 % 91 % 1014,2 hPa 0,0 l/m 0,0 km/h (0 Bft) W-SW 247 5 min 6,6 C 11,9 C 0,0 km/h (0 Bft)
23.12.2020 12:25 9,5 C 9,3 C 10,7 C 12,1 C 12,1 C 2,6 C 89 % 91 % 1014,2 hPa 0,0 l/m 0,0 km/h (0 Bft) W-SW 247 0 min 7,8 C 12,1 C 0,0 km/h (0 Bft)
23.12.2020 12:30 9,5 C 9,3 C 10,6 C 12,1 C 12,1 C 2,6 C 89 % 91 % 1014,1 hPa 0,0 l/m 0,0 km/h (0 Bft) W-SW 247 0 min 7,8 C 12,1 C 0,0 km/h (0 Bft)
23.12.2020 12:35 9,5 C 9,3 C 10,6 C 12,2 C 12,2 C 2,7 C 89 % 91 % 1014,1 hPa 0,0 l/m 0,0 km/h (0 Bft) O-NO 67 0 min 7,8 C 12,2 C 0,0 km/h (0 Bft)
23.12.2020 12:40 9,6 C 9,3 C 10,7 C 12,2 C 12,2 C 2,6 C 89 % 91 % 1014,1 hPa 0,0 l/m 0,0 km/h (0 Bft) O-NO 67 0 min 7,9 C 12,2 C 0,0 km/h (0 Bft)
23.12.2020 12:45 9,7 C 9,3 C 10,7 C 12,3 C 12,3 C 2,6 C 89 % 92 % 1014,1 hPa 0,0 l/m 0,0 km/h (0 Bft) O 90 0 min 8,0 C 12,3 C 0,0 km/h (0 Bft)
23.12.2020 12:50 9,7 C 9,3 C 10,7 C 12,3 C 12,3 C 2,6 C 89 % 92 % 1013,7 hPa 0,0 l/m 0,0 km/h (0 Bft) O 90 0 min 8,0 C 12,3 C 0,0 km/h (0 Bft)
23.12.2020 12:55 9,7 C 9,3 C 10,7 C 12,3 C 12,3 C 2,6 C 89 % 92 % 1013,7 hPa 0,0 l/m 0,0 km/h (0 Bft) O-SO 112 0 min 8,0 C 12,3 C 0,0 km/h (0 Bft)
23.12.2020 13:00 9,7 C 9,3 C 10,8 C 12,3 C 12,3 C 2,6 C 89 % 91 % 1013,7 hPa 0,0 l/m 0,0 km/h (0 Bft) NO 45 0 min 8,0 C 12,3 C 0,0 km/h (0 Bft)
23.12.2020 13:05 9,9 C 9,3 C 10,8 C 12,4 C 12,4 C 2,5 C 89 % 91 % 1013,7 hPa 0,0 l/m 0,0 km/h (0 Bft) S 180 0 min 8,2 C 12,4 C 1,6 km/h (1 Bft)
23.12.2020 13:10 9,9 C 9,3 C 10,9 C 12,5 C 12,5 C 2,6 C 89 % 92 % 1013,3 hPa 0,0 l/m 0,2 km/h (0 Bft) S-SO 157 0 min 8,2 C 12,5 C 0,0 km/h (0 Bft)
23.12.2020 13:15 10,0 C 9,3 C 10,9 C 12,6 C 12,6 C 2,6 C 89 % 91 % 1013,3 hPa 0,0 l/m 0,2 km/h (0 Bft) S-SW 202 0 min 8,3 C 12,6 C 0,0 km/h (0 Bft)
23.12.2020 13:20 10,1 C 9,3 C 10,9 C 12,7 C 12,7 C 2,6 C 88 % 91 % 1013,3 hPa 0,0 l/m 0,2 km/h (0 Bft) O-SO 112 0 min 8,2 C 12,7 C 0,0 km/h (0 Bft)
23.12.2020 13:25 10,0 C 9,3 C 11,0 C 12,8 C 12,8 C 2,8 C 89 % 91 % 1013,3 hPa 0,0 l/m 0,5 km/h (0 Bft) S 180 0 min 8,3 C 12,8 C 0,0 km/h (0 Bft)
23.12.2020 13:30 10,1 C 9,3 C 11,0 C 12,7 C 12,7 C 2,6 C 89 % 91 % 1013,2 hPa 0,0 l/m 0,8 km/h (0 Bft) S 180 0 min 8,4 C 12,7 C 0,0 km/h (0 Bft)
23.12.2020 13:35 10,2 C 9,3 C 11,1 C 12,7 C 12,7 C 2,5 C 88 % 92 % 1013,2 hPa 0,0 l/m 0,5 km/h (0 Bft) S 180 0 min 8,3 C 12,7 C 0,0 km/h (0 Bft)
23.12.2020 13:40 10,1 C 9,3 C 11,0 C 12,8 C 12,8 C 2,7 C 88 % 91 % 1013,2 hPa 0,0 l/m 0,6 km/h (0 Bft) S-SO 157 0 min 8,2 C 12,8 C 3,4 km/h (1 Bft)
23.12.2020 13:45 10,3 C 9,3 C 11,1 C 12,7 C 12,7 C 2,4 C 88 % 92 % 1013,2 hPa 0,0 l/m 1,8 km/h (1 Bft) S 180 0 min 8,4 C 12,7 C 2,7 km/h (1 Bft)
23.12.2020 13:50 10,3 C 9,3 C 11,1 C 12,8 C 12,8 C 2,5 C 88 % 92 % 1012,7 hPa 0,0 l/m 1,6 km/h (1 Bft) S 180 0 min 8,4 C 12,8 C 2,1 km/h (1 Bft)
23.12.2020 13:55 10,3 C 9,3 C 11,1 C 12,9 C 12,9 C 2,6 C 88 % 92 % 1012,7 hPa 0,0 l/m 1,8 km/h (1 Bft) S 180 0 min 8,4 C 12,9 C 3,5 km/h (1 Bft)
23.12.2020 14:00 10,3 C 9,4 C 11,1 C 12,9 C 12,9 C 2,6 C 88 % 92 % 1012,7 hPa 0,0 l/m 1,4 km/h (1 Bft) SO 135 0 min 8,4 C 12,9 C 0,0 km/h (0 Bft)
23.12.2020 14:05 10,3 C 9,4 C 11,1 C 12,9 C 12,9 C 2,6 C 88 % 92 % 1012,7 hPa 0,0 l/m 0,8 km/h (0 Bft) O-SO 112 0 min 8,4 C 12,9 C 3,2 km/h (1 Bft)
23.12.2020 14:10 10,3 C 9,4 C 11,2 C 12,9 C 12,9 C 2,6 C 88 % 92 % 1012,6 hPa 0,0 l/m 1,8 km/h (1 Bft) S 180 0 min 8,4 C 12,9 C 4,0 km/h (1 Bft)
23.12.2020 14:15 10,4 C 9,4 C 11,2 C 12,9 C 12,9 C 2,5 C 88 % 92 % 1012,6 hPa 0,0 l/m 2,6 km/h (1 Bft) S-SW 202 0 min 8,5 C 12,9 C 2,1 km/h (1 Bft)
23.12.2020 14:20 10,4 C 9,4 C 11,1 C 12,9 C 12,9 C 2,5 C 88 % 92 % 1012,6 hPa 0,0 l/m 2,7 km/h (1 Bft) S-SW 202 0 min 8,5 C 12,9 C 4,0 km/h (1 Bft)
23.12.2020 14:25 10,4 C 9,4 C 11,1 C 12,8 C 12,8 C 2,4 C 88 % 92 % 1012,6 hPa 0,0 l/m 2,7 km/h (1 Bft) O-SO 112 0 min 8,5 C 12,8 C 6,4 km/h (2 Bft)
23.12.2020 14:30 10,4 C 9,4 C 11,1 C 12,8 C 12,8 C 2,4 C 88 % 92 % 1012,4 hPa 0,0 l/m 2,9 km/h (1 Bft) S-SO 157 0 min 8,5 C 12,8 C 5,0 km/h (1 Bft)
23.12.2020 14:35 10,5 C 9,4 C 11,1 C 12,8 C 12,8 C 2,3 C 88 % 92 % 1012,4 hPa 0,0 l/m 3,1 km/h (1 Bft) SO 135 0 min 8,6 C 12,8 C 8,5 km/h (2 Bft)
23.12.2020 14:40 10,5 C 9,4 C 11,1 C 12,7 C 12,7 C 2,2 C 88 % 92 % 1012,4 hPa 0,0 l/m 2,3 km/h (1 Bft) SO 135 0 min 8,6 C 12,7 C 3,7 km/h (1 Bft)
23.12.2020 14:45 10,5 C 9,4 C 11,0 C 12,6 C 12,6 C 2,1 C 88 % 92 % 1012,4 hPa 0,0 l/m 1,0 km/h (0 Bft) O 90 0 min 8,6 C 12,6 C 0,0 km/h (0 Bft)
23.12.2020 14:50 10,6 C 9,5 C 11,0 C 12,6 C 12,6 C 2,0 C 88 % 92 % 1012,0 hPa 0,0 l/m 0,5 km/h (0 Bft) O 90 0 min 8,7 C 12,6 C 0,0 km/h (0 Bft)
23.12.2020 14:55 10,6 C 9,5 C 10,9 C 12,5 C 12,5 C 1,9 C 88 % 92 % 1012,0 hPa 0,0 l/m 0,0 km/h (0 Bft) O 90 0 min 8,7 C 12,5 C 0,0 km/h (0 Bft)
23.12.2020 15:00 10,7 C 9,4 C 10,9 C 12,5 C 12,5 C 1,8 C 88 % 92 % 1012,0 hPa 0,0 l/m 0,0 km/h (0 Bft) O 90 0 min 8,8 C 12,5 C 0,0 km/h (0 Bft)
23.12.2020 15:05 10,7 C 9,5 C 10,9 C 12,5 C 12,5 C 1,8 C 88 % 92 % 1012,0 hPa 0,0 l/m 0,0 km/h (0 Bft) O 90 0 min 8,8 C 12,5 C 0,0 km/h (0 Bft)
23.12.2020 15:10 10,7 C 9,5 C 10,8 C 12,4 C 12,4 C 1,7 C 88 % 92 % 1011,9 hPa 0,0 l/m 0,0 km/h (0 Bft) O 90 0 min 8,8 C 12,4 C 0,0 km/h (0 Bft)
23.12.2020 15:15 10,7 C 9,5 C 10,7 C 12,3 C 12,3 C 1,6 C 88 % 92 % 1011,9 hPa 0,0 l/m 0,0 km/h (0 Bft) S-SW 202 0 min 8,8 C 12,3 C 0,0 km/h (0 Bft)
23.12.2020 15:20 10,7 C 9,5 C 10,6 C 12,1 C 12,1 C 1,4 C 88 % 92 % 1011,9 hPa 0,0 l/m 0,0 km/h (0 Bft) S-SW 202 0 min 8,8 C 12,1 C 0,0 km/h (0 Bft)
23.12.2020 15:25 10,7 C 9,5 C 10,5 C 12,0 C 12,0 C 1,3 C 88 % 92 % 1011,9 hPa 0,0 l/m 0,0 km/h (0 Bft) S-SW 202 0 min 8,8 C 12,0 C 0,0 km/h (0 Bft)
23.12.2020 15:30 10,6 C 9,5 C 10,4 C 11,9 C 11,9 C 1,3 C 88 % 92 % 1011,6 hPa 0,0 l/m 0,0 km/h (0 Bft) S-SW 202 5 min 8,7 C 11,9 C 0,0 km/h (0 Bft)
23.12.2020 15:35 10,5 C 9,5 C 10,3 C 11,8 C 11,8 C 1,3 C 88 % 92 % 1011,6 hPa 0,0 l/m 0,0 km/h (0 Bft) S-SW 202 5 min 8,6 C 11,8 C 0,0 km/h (0 Bft)
23.12.2020 15:40 10,5 C 9,5 C 10,2 C 11,7 C 11,7 C 1,2 C 88 % 92 % 1011,6 hPa 0,0 l/m 0,0 km/h (0 Bft) S-SW 202 5 min 8,6 C 11,7 C 0,0 km/h (0 Bft)
23.12.2020 15:45 10,4 C 9,5 C 10,2 C 11,6 C 11,6 C 1,2 C 88 % 92 % 1011,6 hPa 0,0 l/m 0,0 km/h (0 Bft) NO 45 5 min 8,5 C 11,6 C 0,0 km/h (0 Bft)
23.12.2020 15:50 10,4 C 9,5 C 10,1 C 11,5 C 11,5 C 1,1 C 88 % 92 % 1011,3 hPa 0,0 l/m 0,0 km/h (0 Bft) NO 45 5 min 8,5 C 11,5 C 0,0 km/h (0 Bft)
23.12.2020 15:55 10,5 C 9,5 C 10,1 C 11,5 C 11,5 C 1,0 C 88 % 92 % 1011,3 hPa 0,0 l/m 0,0 km/h (0 Bft) O-NO 67 0 min 8,6 C 11,5 C 0,0 km/h (0 Bft)
23.12.2020 16:00 10,4 C 9,5 C 10,0 C 11,4 C 11,4 C 1,0 C 88 % 92 % 1011,3 hPa 0,0 l/m 0,0 km/h (0 Bft) O-NO 67 0 min 8,5 C 11,4 C 0,0 km/h (0 Bft)
23.12.2020 16:05 10,3 C 9,5 C 9,9 C 11,3 C 11,3 C 1,0 C 88 % 92 % 1011,3 hPa 0,0 l/m 0,0 km/h (0 Bft) O-NO 67 0 min 8,4 C 11,3 C 0,0 km/h (0 Bft)
23.12.2020 16:10 10,2 C 9,5 C 9,9 C 11,2 C 11,2 C 1,0 C 88 % 92 % 1011,2 hPa 0,0 l/m 0,0 km/h (0 Bft) O-NO 67 0 min 8,3 C 11,2 C 0,0 km/h (0 Bft)
23.12.2020 16:15 10,3 C 9,5 C 9,7 C 11,1 C 11,1 C 0,8 C 88 % 92 % 1011,2 hPa 0,0 l/m 0,0 km/h (0 Bft) O-NO 67 0 min 8,4 C 11,1 C 0,0 km/h (0 Bft)
23.12.2020 16:20 10,2 C 9,5 C 9,7 C 11,1 C 11,1 C 0,9 C 88 % 92 % 1011,2 hPa 0,0 l/m 0,0 km/h (0 Bft) O-NO 67 0 min 8,3 C 11,1 C 0,0 km/h (0 Bft)
23.12.2020 16:25 10,1 C 9,5 C 9,9 C 11,0 C 11,0 C 0,9 C 88 % 92 % 1011,2 hPa 0,0 l/m 1,1 km/h (1 Bft) O-NO 67 0 min 8,2 C 11,0 C 2,4 km/h (1 Bft)
23.12.2020 16:30 10,0 C 9,5 C 9,9 C 10,9 C 10,9 C 0,9 C 88 % 92 % 1010,8 hPa 0,0 l/m 2,1 km/h (1 Bft) O-NO 67 0 min 8,1 C 10,9 C 2,4 km/h (1 Bft)
23.12.2020 16:35 10,0 C 9,5 C 10,0 C 11,0 C 11,0 C 1,0 C 88 % 92 % 1010,8 hPa 0,0 l/m 2,3 km/h (1 Bft) O-NO 67 0 min 8,1 C 11,0 C 3,5 km/h (1 Bft)
23.12.2020 16:40 10,0 C 9,5 C 10,0 C 11,1 C 11,1 C 1,1 C 88 % 92 % 1010,8 hPa 0,0 l/m 1,8 km/h (1 Bft) O-NO 67 0 min 8,1 C 11,1 C 0,0 km/h (0 Bft)
23.12.2020 16:45 10,1 C 9,5 C 10,0 C 11,1 C 11,1 C 1,0 C 88 % 92 % 1010,8 hPa 0,0 l/m 0,5 km/h (0 Bft) O-NO 67 0 min 8,2 C 11,1 C 0,0 km/h (0 Bft)
23.12.2020 16:50 10,1 C 9,6 C 9,9 C 11,0 C 11,0 C 0,9 C 88 % 92 % 1010,4 hPa 0,0 l/m 0,0 km/h (0 Bft) O-NO 67 0 min 8,2 C 11,0 C 0,0 km/h (0 Bft)
23.12.2020 16:55 10,0 C 9,6 C 9,9 C 10,9 C 10,9 C 0,9 C 88 % 92 % 1010,4 hPa 0,0 l/m 0,0 km/h (0 Bft) O-NO 67 0 min 8,1 C 10,9 C 0,0 km/h (0 Bft)
23.12.2020 17:00 9,9 C 9,6 C 9,8 C 10,9 C 10,9 C 1,0 C 88 % 92 % 1010,4 hPa 0,0 l/m 0,0 km/h (0 Bft) O-NO 67 0 min 8,0 C 10,9 C 0,0 km/h (0 Bft)
23.12.2020 17:05 9,9 C 9,6 C 9,9 C 10,8 C 10,8 C 0,9 C 88 % 92 % 1010,4 hPa 0,0 l/m 0,0 km/h (0 Bft) O-NO 67 0 min 8,0 C 10,8 C 0,0 km/h (0 Bft)
23.12.2020 17:10 9,9 C 9,6 C 9,8 C 10,8 C 10,8 C 0,9 C 88 % 92 % 1010,3 hPa 0,7 l/m 0,0 km/h (0 Bft) O-NO 67 0 min 8,0 C 10,8 C 0,0 km/h (0 Bft)
23.12.2020 17:15 9,8 C 9,6 C 9,8 C 10,7 C 10,7 C 0,9 C 88 % 92 % 1010,3 hPa 0,0 l/m 0,0 km/h (0 Bft) N-NO 22 0 min 7,9 C 10,7 C 0,0 km/h (0 Bft)
23.12.2020 17:20 9,8 C 9,6 C 9,8 C 10,7 C 10,7 C 0,9 C 88 % 92 % 1010,3 hPa 0,0 l/m 0,0 km/h (0 Bft) N-NO 22 0 min 7,9 C 10,7 C 0,0 km/h (0 Bft)
23.12.2020 17:25 9,8 C 9,6 C 9,7 C 10,7 C 10,7 C 0,9 C 88 % 92 % 1010,3 hPa 0,0 l/m 0,0 km/h (0 Bft) N-NO 22 0 min 7,9 C 10,7 C 0,0 km/h (0 Bft)
23.12.2020 17:30 9,8 C 9,6 C 9,8 C 10,7 C 10,7 C 0,9 C 88 % 92 % 1010,3 hPa 0,0 l/m 0,0 km/h (0 Bft) N-NO 22 0 min 7,9 C 10,7 C 0,0 km/h (0 Bft)
23.12.2020 17:35 9,7 C 9,6 C 9,7 C 10,7 C 10,7 C 1,0 C 88 % 92 % 1010,3 hPa 0,7 l/m 0,0 km/h (0 Bft) N-NO 22 0 min 7,8 C 10,7 C 0,0 km/h (0 Bft)
23.12.2020 17:40 9,7 C 9,6 C 9,8 C 10,7 C 10,7 C 1,0 C 88 % 92 % 1010,3 hPa 0,7 l/m 0,0 km/h (0 Bft) N-NO 22 0 min 7,8 C 10,7 C 0,0 km/h (0 Bft)
23.12.2020 17:45 9,7 C 9,6 C 9,8 C 10,7 C 10,7 C 1,0 C 88 % 92 % 1010,3 hPa 0,0 l/m 0,0 km/h (0 Bft) O-NO 67 0 min 7,8 C 10,7 C 0,0 km/h (0 Bft)
23.12.2020 17:50 9,7 C 9,6 C 9,7 C 10,7 C 10,7 C 1,0 C 88 % 92 % 1009,6 hPa 0,0 l/m 0,2 km/h (0 Bft) S 180 0 min 7,8 C 10,7 C 2,1 km/h (1 Bft)
23.12.2020 17:55 9,6 C 9,6 C 9,9 C 10,8 C 10,8 C 1,2 C 88 % 92 % 1009,6 hPa 0,7 l/m 0,3 km/h (0 Bft) S-SO 157 0 min 7,7 C 10,8 C 2,9 km/h (1 Bft)
23.12.2020 18:00 9,6 C 9,6 C 9,9 C 10,8 C 10,8 C 1,2 C 88 % 91 % 1009,6 hPa 0,0 l/m 0,6 km/h (0 Bft) S 180 0 min 7,7 C 10,8 C 2,1 km/h (1 Bft)
23.12.2020 18:05 9,7 C 9,6 C 9,9 C 10,9 C 10,9 C 1,2 C 88 % 92 % 1009,6 hPa 0,0 l/m 0,6 km/h (0 Bft) S 180 0 min 7,8 C 10,9 C 1,6 km/h (1 Bft)
23.12.2020 18:10 9,6 C 9,6 C 9,9 C 10,9 C 10,9 C 1,3 C 88 % 92 % 1009,9 hPa 0,0 l/m 0,3 km/h (0 Bft) S 180 0 min 7,7 C 10,9 C 0,0 km/h (0 Bft)
23.12.2020 18:15 9,6 C 9,6 C 9,9 C 10,9 C 10,9 C 1,3 C 88 % 92 % 1009,9 hPa 0,0 l/m 0,5 km/h (0 Bft) S 180 0 min 7,7 C 10,9 C 2,9 km/h (1 Bft)
23.12.2020 18:20 9,7 C 9,6 C 9,9 C 10,9 C 10,9 C 1,2 C 88 % 92 % 1009,9 hPa 0,7 l/m 0,8 km/h (0 Bft) S 180 0 min 7,8 C 10,9 C 3,9 km/h (1 Bft)
23.12.2020 18:25 9,7 C 9,6 C 9,9 C 10,9 C 10,9 C 1,2 C 88 % 91 % 1009,9 hPa 0,0 l/m 1,4 km/h (1 Bft) S-SO 157 0 min 7,8 C 10,9 C 2,3 km/h (1 Bft)
23.12.2020 18:30 9,7 C 9,6 C 10,0 C 11,0 C 11,0 C 1,3 C 88 % 91 % 1009,0 hPa 0,0 l/m 1,1 km/h (1 Bft) SO 135 0 min 7,8 C 11,0 C 0,0 km/h (0 Bft)
23.12.2020 18:35 9,7 C 9,6 C 10,0 C 11,0 C 11,0 C 1,3 C 88 % 91 % 1009,0 hPa 0,0 l/m 0,8 km/h (0 Bft) S 180 0 min 7,8 C 11,0 C 0,0 km/h (0 Bft)
23.12.2020 18:40 9,7 C 9,6 C 10,1 C 11,0 C 11,0 C 1,3 C 88 % 91 % 1009,0 hPa 0,0 l/m 1,1 km/h (1 Bft) S-SO 157 0 min 7,8 C 11,0 C 4,2 km/h (1 Bft)
23.12.2020 18:45 9,9 C 9,6 C 10,1 C 11,1 C 11,1 C 1,2 C 88 % 91 % 1009,0 hPa 0,7 l/m 2,1 km/h (1 Bft) S 180 0 min 8,0 C 11,1 C 3,5 km/h (1 Bft)
23.12.2020 18:50 9,9 C 9,6 C 10,1 C 11,1 C 11,1 C 1,2 C 88 % 91 % 1009,2 hPa 0,0 l/m 2,9 km/h (1 Bft) S 180 0 min 8,0 C 11,1 C 4,7 km/h (1 Bft)
23.12.2020 18:55 9,8 C 9,6 C 10,2 C 11,2 C 11,2 C 1,4 C 88 % 91 % 1009,2 hPa 0,0 l/m 3,2 km/h (1 Bft) S-SO 157 0 min 7,9 C 11,2 C 4,0 km/h (1 Bft)
23.12.2020 19:00 9,9 C 9,6 C 10,3 C 11,3 C 11,3 C 1,4 C 88 % 91 % 1009,2 hPa 0,0 l/m 3,4 km/h (1 Bft) S 180 0 min 8,0 C 11,3 C 1,9 km/h (1 Bft)
23.12.2020 19:05 9,9 C 9,6 C 10,3 C 11,3 C 11,3 C 1,4 C 88 % 91 % 1009,2 hPa 0,0 l/m 3,2 km/h (1 Bft) S 180 0 min 8,0 C 11,3 C 5,8 km/h (2 Bft)
23.12.2020 19:10 10,0 C 9,6 C 10,4 C 11,3 C 11,3 C 1,3 C 88 % 91 % 1008,8 hPa 0,0 l/m 3,9 km/h (1 Bft) SO 135 0 min 8,1 C 11,3 C 6,4 km/h (2 Bft)
23.12.2020 19:15 10,0 C 9,7 C 10,4 C 11,2 C 11,2 C 1,2 C 88 % 91 % 1008,8 hPa 0,0 l/m 5,1 km/h (1 Bft) SO 135 0 min 8,1 C 11,2 C 11,1 km/h (2 Bft)
23.12.2020 19:20 10,1 C 9,7 C 10,5 C 11,2 C 11,2 C 1,1 C 88 % 91 % 1008,8 hPa 0,0 l/m 5,3 km/h (1 Bft) S-SO 157 0 min 8,2 C 11,2 C 8,7 km/h (2 Bft)
23.12.2020 19:25 10,0 C 9,7 C 10,5 C 11,4 C 11,4 C 1,4 C 88 % 91 % 1008,8 hPa 0,7 l/m 4,8 km/h (1 Bft) SO 135 0 min 8,1 C 11,4 C 3,2 km/h (1 Bft)
23.12.2020 19:30 10,1 C 9,7 C 10,5 C 11,4 C 11,4 C 1,3 C 88 % 91 % 1008,3 hPa 0,0 l/m 4,5 km/h (1 Bft) S-SO 157 0 min 8,2 C 11,4 C 4,2 km/h (1 Bft)
23.12.2020 19:35 10,1 C 9,7 C 10,5 C 11,4 C 11,4 C 1,3 C 88 % 91 % 1008,3 hPa 0,0 l/m 3,5 km/h (1 Bft) S 180 0 min 8,2 C 11,4 C 3,9 km/h (1 Bft)
23.12.2020 19:40 10,1 C 9,7 C 10,6 C 11,4 C 11,4 C 1,3 C 88 % 91 % 1008,3 hPa 0,0 l/m 2,9 km/h (1 Bft) W-SW 247 0 min 8,2 C 11,4 C 3,5 km/h (1 Bft)
23.12.2020 19:45 10,0 C 9,7 C 10,7 C 11,5 C 11,5 C 1,5 C 88 % 91 % 1008,3 hPa 0,0 l/m 4,0 km/h (1 Bft) NW 315 0 min 8,1 C 11,5 C 4,8 km/h (1 Bft)
23.12.2020 19:50 10,1 C 9,7 C 10,7 C 11,5 C 11,5 C 1,4 C 88 % 91 % 1008,3 hPa 0,0 l/m 4,3 km/h (1 Bft) S-SO 157 0 min 8,2 C 11,5 C 8,0 km/h (2 Bft)
23.12.2020 19:55 10,2 C 9,7 C 10,8 C 11,4 C 11,4 C 1,2 C 88 % 91 % 1008,3 hPa 0,7 l/m 5,6 km/h (1 Bft) W-SW 247 0 min 8,3 C 11,4 C 12,6 km/h (3 Bft)
23.12.2020 20:00 10,3 C 9,7 C 10,8 C 11,2 C 11,2 C 0,9 C 88 % 91 % 1008,3 hPa 0,7 l/m 7,2 km/h (2 Bft) S-SW 202 0 min 8,4 C 11,2 C 15,3 km/h (3 Bft)
23.12.2020 20:05 10,3 C 9,7 C 10,7 C 11,2 C 10,9 C 0,9 C 88 % 91 % 1008,3 hPa 0,0 l/m 8,0 km/h (2 Bft) S 180 0 min 8,4 C 10,9 C 11,9 km/h (2 Bft)
23.12.2020 20:10 10,3 C 9,7 C 10,6 C 11,0 C 10,7 C 0,7 C 88 % 91 % 1008,5 hPa 0,0 l/m 8,4 km/h (2 Bft) S 180 0 min 8,4 C 10,7 C 12,9 km/h (3 Bft)
23.12.2020 20:15 10,1 C 9,8 C 10,5 C 10,8 C 10,4 C 0,7 C 88 % 91 % 1008,5 hPa 0,0 l/m 8,4 km/h (2 Bft) S-SW 202 0 min 8,2 C 10,4 C 12,9 km/h (3 Bft)
23.12.2020 20:20 10,0 C 9,8 C 10,4 C 10,7 C 10,3 C 0,7 C 88 % 91 % 1008,5 hPa 0,7 l/m 9,0 km/h (2 Bft) SW 225 0 min 8,1 C 10,3 C 8,9 km/h (2 Bft)
23.12.2020 20:25 10,0 C 9,8 C 10,4 C 10,5 C 10,2 C 0,5 C 88 % 91 % 1008,5 hPa 0,0 l/m 8,5 km/h (2 Bft) SW 225 0 min 8,1 C 10,2 C 9,7 km/h (2 Bft)
23.12.2020 20:28 10,1 C 9,7 C 10,5 C 11,4 C 11,4 C 1,3 C 88 % 91 % 1008,3 hPa 0,7 l/m 4,5 km/h (1 Bft) S-SO 157 0 min 8,2 C 11,4 C 4,2 km/h (1 Bft)
23.12.2020 20:33 10,1 C 9,7 C 10,5 C 11,4 C 11,4 C 1,3 C 88 % 91 % 1008,3 hPa 0,0 l/m 3,5 km/h (1 Bft) S 180 0 min 8,2 C 11,4 C 3,9 km/h (1 Bft)
23.12.2020 20:38 10,1 C 9,7 C 10,6 C 11,4 C 11,4 C 1,3 C 88 % 91 % 1008,3 hPa 0,0 l/m 2,9 km/h (1 Bft) W-SW 247 0 min 8,2 C 11,4 C 3,5 km/h (1 Bft)
23.12.2020 20:43 10,0 C 9,7 C 10,7 C 11,5 C 11,5 C 1,5 C 88 % 91 % 1008,3 hPa 0,0 l/m 4,0 km/h (1 Bft) NW 315 0 min 8,1 C 11,5 C 4,8 km/h (1 Bft)
23.12.2020 20:48 10,1 C 9,7 C 10,7 C 11,5 C 11,5 C 1,4 C 88 % 91 % 1008,3 hPa 0,0 l/m 4,3 km/h (1 Bft) S-SO 157 0 min 8,2 C 11,5 C 8,0 km/h (2 Bft)
23.12.2020 20:53 10,2 C 9,7 C 10,8 C 11,4 C 11,4 C 1,2 C 88 % 91 % 1008,3 hPa 0,7 l/m 5,6 km/h (1 Bft) W-SW 247 0 min 8,3 C 11,4 C 6,8 km/h (2 Bft)
23.12.2020 20:58 10,3 C 9,7 C 10,8 C 11,2 C 11,2 C 0,9 C 88 % 91 % 1008,3 hPa 0,7 l/m 7,2 km/h (2 Bft) S-SW 202 0 min 8,4 C 11,2 C 15,3 km/h (3 Bft)
23.12.2020 21:03 10,3 C 9,7 C 10,7 C 11,2 C 10,9 C 0,9 C 88 % 91 % 1008,3 hPa 0,0 l/m 8,0 km/h (2 Bft) S 180 0 min 8,4 C 10,9 C 11,9 km/h (2 Bft)
23.12.2020 21:08 10,3 C 9,7 C 10,6 C 11,0 C 10,7 C 0,7 C 88 % 91 % 1008,5 hPa 0,0 l/m 8,4 km/h (2 Bft) S 180 0 min 8,4 C 10,7 C 12,9 km/h (3 Bft)
23.12.2020 21:13 10,1 C 9,8 C 10,5 C 10,8 C 10,4 C 0,7 C 88 % 91 % 1008,5 hPa 0,0 l/m 8,4 km/h (2 Bft) S-SW 202 0 min 8,2 C 10,4 C 12,9 km/h (3 Bft)
23.12.2020 21:18 10,0 C 9,8 C 10,4 C 10,7 C 10,3 C 0,7 C 88 % 91 % 1008,5 hPa 0,7 l/m 9,0 km/h (2 Bft) SW 225 0 min 8,1 C 10,3 C 8,9 km/h (2 Bft)
23.12.2020 21:11 10,0 C 9,9 C 10,4 C 11,2 C 11,2 C 1,2 C 88 % 91 % 1007,9 hPa 0,7 l/m 4,2 km/h (1 Bft) SO 135 0 min 8,1 C 11,2 C 9,8 km/h (2 Bft)
23.12.2020 21:15 10,0 C 9,9 C 10,5 C 11,3 C 11,3 C 1,3 C 88 % 91 % 1007,9 hPa 0,0 l/m 3,9 km/h (1 Bft) S-SO 157 0 min 8,1 C 11,3 C 6,8 km/h (2 Bft)
23.12.2020 21:20 10,1 C 9,9 C 10,5 C 11,1 C 11,1 C 1,0 C 88 % 91 % 1007,9 hPa 0,0 l/m 5,3 km/h (1 Bft) S 180 0 min 8,2 C 11,1 C 10,3 km/h (2 Bft)
23.12.2020 21:25 10,1 C 9,9 C 10,5 C 11,2 C 11,2 C 1,1 C 88 % 91 % 1007,9 hPa 0,0 l/m 5,0 km/h (1 Bft) NO 45 0 min 8,2 C 11,2 C 3,1 km/h (1 Bft)
23.12.2020 21:30 10,0 C 9,9 C 10,5 C 11,2 C 11,2 C 1,2 C 88 % 91 % 1008,2 hPa 0,0 l/m 4,0 km/h (1 Bft) S-SW 202 0 min 8,1 C 11,2 C 5,5 km/h (1 Bft)
23.12.2020 21:35 10,1 C 9,9 C 10,4 C 11,1 C 11,1 C 1,0 C 88 % 91 % 1008,2 hPa 0,0 l/m 4,0 km/h (1 Bft) NW 315 0 min 8,2 C 11,1 C 2,9 km/h (1 Bft)
23.12.2020 21:40 10,0 C 9,9 C 10,4 C 11,1 C 11,1 C 1,1 C 88 % 91 % 1008,2 hPa 0,0 l/m 4,8 km/h (1 Bft) W-SW 247 0 min 8,1 C 11,1 C 6,0 km/h (2 Bft)
23.12.2020 21:45 10,0 C 9,9 C 10,4 C 10,8 C 10,8 C 0,8 C 88 % 91 % 1008,2 hPa 0,0 l/m 5,8 km/h (2 Bft) S 180 0 min 8,1 C 10,8 C 16,1 km/h (3 Bft)
23.12.2020 21:50 10,1 C 9,9 C 10,4 C 10,7 C 10,7 C 0,6 C 88 % 91 % 1008,1 hPa 0,0 l/m 6,6 km/h (2 Bft) S 180 0 min 8,2 C 10,7 C 6,3 km/h (2 Bft)
23.12.2020 21:55 10,1 C 9,9 C 10,4 C 10,9 C 10,9 C 0,8 C 88 % 91 % 1008,1 hPa 0,0 l/m 5,5 km/h (1 Bft) W-SW 247 0 min 8,2 C 10,9 C 3,2 km/h (1 Bft)
23.12.2020 22:00 10,1 C 9,9 C 10,4 C 11,1 C 11,1 C 1,0 C 88 % 91 % 1008,1 hPa 0,0 l/m 4,5 km/h (1 Bft) SO 135 0 min 8,2 C 11,1 C 6,6 km/h (2 Bft)
23.12.2020 22:05 10,1 C 9,9 C 10,5 C 11,1 C 11,1 C 1,0 C 88 % 91 % 1008,1 hPa 0,7 l/m 4,8 km/h (1 Bft) S 180 0 min 8,2 C 11,1 C 6,3 km/h (2 Bft)
23.12.2020 22:11 10,1 C 10,0 C 10,4 C 11,0 C 11,0 C 0,9 C 88 % 91 % 1008,6 hPa 0,0 l/m 5,0 km/h (1 Bft) N 0 0 min 8,2 C 11,0 C 12,1 km/h (2 Bft)
23.12.2020 22:26 10,1 C 10,0 C 10,5 C 10,6 C 10,6 C 0,5 C 88 % 91 % 1008,6 hPa 0,0 l/m 7,2 km/h (2 Bft) NO 45 0 min 8,2 C 10,6 C 2,7 km/h (1 Bft)
23.12.2020 22:41 10,3 C 10,0 C 10,4 C 10,4 C 10,4 C 0,1 C 88 % 91 % 1007,9 hPa 0,0 l/m 7,4 km/h (2 Bft) SO 135 0 min 8,4 C 10,4 C 6,3 km/h (2 Bft)
23.12.2020 22:45 10,3 C 10,0 C 10,4 C 10,9 C 10,9 C 0,6 C 88 % 91 % 1007,9 hPa 0,0 l/m 5,3 km/h (1 Bft) O-SO 112 0 min 8,4 C 10,9 C 2,9 km/h (1 Bft)
23.12.2020 22:50 10,2 C 10,0 C 10,4 C 11,1 C 11,1 C 0,9 C 88 % 92 % 1008,9 hPa 0,0 l/m 4,5 km/h (1 Bft) NW 315 0 min 8,3 C 11,1 C 8,2 km/h (2 Bft)
23.12.2020 22:55 10,3 C 10,0 C 10,4 C 11,1 C 11,1 C 0,8 C 88 % 92 % 1008,9 hPa 0,0 l/m 4,7 km/h (1 Bft) S 180 0 min 8,4 C 11,1 C 4,2 km/h (1 Bft)
23.12.2020 23:00 10,3 C 10,0 C 10,4 C 11,1 C 11,1 C 0,8 C 88 % 92 % 1008,9 hPa 0,0 l/m 4,8 km/h (1 Bft) O-NO 67 0 min 8,4 C 11,1 C 7,2 km/h (2 Bft)
23.12.2020 23:05 10,3 C 10,0 C 10,4 C 10,9 C 10,9 C 0,6 C 88 % 92 % 1008,9 hPa 0,0 l/m 4,8 km/h (1 Bft) W 270 0 min 8,4 C 10,9 C 5,8 km/h (2 Bft)
23.12.2020 23:10 10,2 C 10,0 C 10,4 C 10,9 C 10,9 C 0,7 C 88 % 92 % 1008,4 hPa 0,0 l/m 4,8 km/h (1 Bft) S 180 0 min 8,3 C 10,9 C 5,3 km/h (1 Bft)
23.12.2020 23:15 10,3 C 10,0 C 10,4 C 10,8 C 10,8 C 0,5 C 88 % 92 % 1008,4 hPa 0,0 l/m 4,8 km/h (1 Bft) W-SW 247 0 min 8,4 C 10,8 C 11,4 km/h (2 Bft)
23.12.2020 23:20 10,3 C 9,9 C 10,3 C 10,7 C 10,7 C 0,4 C 88 % 92 % 1008,4 hPa 0,0 l/m 5,1 km/h (1 Bft) SW 225 0 min 8,4 C 10,7 C 9,2 km/h (2 Bft)
23.12.2020 23:25 10,4 C 9,9 C 10,3 C 10,8 C 10,8 C 0,4 C 88 % 92 % 1008,4 hPa 0,0 l/m 4,5 km/h (1 Bft) SW 225 0 min 8,5 C 10,8 C 7,4 km/h (2 Bft)
23.12.2020 23:30 10,3 C 9,9 C 10,3 C 10,7 C 10,7 C 0,4 C 88 % 92 % 1008,1 hPa 0,0 l/m 4,7 km/h (1 Bft) S-SO 157 0 min 8,4 C 10,7 C 6,9 km/h (2 Bft)
23.12.2020 23:35 10,5 C 9,9 C 10,3 C 10,7 C 10,7 C 0,2 C 88 % 92 % 1008,1 hPa 0,0 l/m 4,0 km/h (1 Bft) O-SO 112 0 min 8,6 C 10,7 C 4,5 km/h (1 Bft)
23.12.2020 23:40 10,4 C 9,9 C 10,3 C 10,7 C 10,7 C 0,3 C 88 % 92 % 1008,1 hPa 0,0 l/m 3,9 km/h (1 Bft) NW 315 0 min 8,5 C 10,7 C 6,4 km/h (2 Bft)
23.12.2020 23:45 10,5 C 9,9 C 10,3 C 10,7 C 10,7 C 0,2 C 88 % 92 % 1008,1 hPa 0,0 l/m 3,4 km/h (1 Bft) S-SO 157 0 min 8,6 C 10,7 C 6,1 km/h (2 Bft)
23.12.2020 23:50 10,5 C 9,9 C 10,2 C 10,8 C 10,8 C 0,3 C 88 % 92 % 1007,9 hPa 0,0 l/m 3,2 km/h (1 Bft) N-NO 22 0 min 8,6 C 10,8 C 4,5 km/h (1 Bft)
23.12.2020 23:55 10,4 C 9,9 C 10,2 C 10,9 C 10,9 C 0,5 C 88 % 93 % 1007,9 hPa 0,0 l/m 3,7 km/h (1 Bft) O-NO 67 0 min 8,5 C 10,9 C 6,3 km/h (2 Bft)
_ Min-Zeit 08:00 03:05 07:00 03:15 03:15 00:00 00:00 00:00 21:11 - 00:15 - - - 08:00 03:15 00:05
Minimum _ 7,5 C 9,0 C 7,8 C 8,8 C 8,8 C 0,0 C 87 % 91 % 1007,9 hPa - 0,0 km/h (0 Bft) - - - 5,6 C 8,8 C 0,0 km/h (0 Bft)
_ Max-Zeit 15:00 22:11 14:10 13:55 13:55 12:20 07:25 23:55 00:00 01:05 20:20 - - 08:25 15:00 13:55 21:45
Maximum _ 10,7 C 10,0 C 11,2 C 12,9 C 12,9 C 3,6 C 89 % 93 % 1016,9 hPa 0,7 l/m 9,0 km/h
SW (2 Bft)
- - 5 min 8,8 C 12,9 C 16,1 km/h
S (3 Bft)
Durchschnitt _ 9,1 C 9,4 C 9,5 C 10,5 C 10,5 C 1,3 C 88 % 92 % 1013,0 hPa #14,4 l/m 1,4 km/h (1 Bft) S - #1:45 h 7,3 C 10,5 C 2,0 km/h (1 Bft)
2020 www.wetterstation-wechselburg.de